Time;durP1;ratioP1;P1;durP2;ratioP2;P2;SDS_P1;SDS_P2;PMS_P1;PMS_P2;Temp;Humidity;BMP_temperature;BMP_pressure;BME280_temperature;BME280_humidity;BME280_pressure;Samples;Min_cycle;Max_cycle;Signal;HPM_P1;HPM_P2
2020/12/18 00:00:46;;;;;;;12.90;11.17;;;5.90;99.90;;;;;;5068224;28;20197;-59
2020/12/18 00:03:12;;;;;;;11.97;10.00;;;5.80;99.90;;;;;;5069095;28;20467;-60
2020/12/18 00:05:42;;;;;;;12.67;9.70;;;6.00;99.90;;;;;;5069377;28;20213;-60
2020/12/18 00:08:09;;;;;;;13.38;9.85;;;6.10;99.90;;;;;;5067522;28;20184;-59
2020/12/18 00:10:37;;;;;;;14.18;10.13;;;6.10;99.90;;;;;;5067671;28;20186;-59
2020/12/18 00:13:03;;;;;;;10.48;9.40;;;5.70;99.90;;;;;;5067414;28;20186;-59
2020/12/18 00:15:29;;;;;;;11.20;8.40;;;5.90;99.90;;;;;;5067473;28;20249;-59
2020/12/18 00:17:54;;;;;;;10.27;8.87;;;5.80;99.90;;;;;;5067730;28;20656;-59
2020/12/18 00:20:20;;;;;;;12.90;9.40;;;5.30;99.90;;;;;;5067809;28;20460;-59
2020/12/18 00:22:46;;;;;;;10.70;9.53;;;5.90;99.90;;;;;;5070935;28;20228;-60
2020/12/18 00:25:12;;;;;;;15.07;9.98;;;6.00;99.90;;;;;;5071540;28;20452;-60
2020/12/18 00:27:39;;;;;;;18.92;9.15;;;5.80;99.90;;;;;;5071367;28;20203;-59
2020/12/18 00:30:10;;;;;;;10.20;9.10;;;5.50;99.90;;;;;;5071149;28;20198;-60
2020/12/18 00:32:37;;;;;;;11.77;10.23;;;5.90;99.90;;;;;;5071286;28;20194;-60
2020/12/18 00:35:08;;;;;;;11.82;9.35;;;5.70;99.90;;;;;;5071655;28;20275;-60
2020/12/18 00:37:33;;;;;;;13.07;9.60;;;5.80;99.90;;;;;;5071661;28;20215;-59
2020/12/18 00:39:59;;;;;;;12.10;9.67;;;5.60;99.90;;;;;;5071157;28;20599;-59
2020/12/18 00:42:28;;;;;;;10.48;9.40;;;5.60;99.90;;;;;;5071485;28;20480;-59
2020/12/18 00:44:53;;;;;;;12.77;9.95;;;5.80;99.90;;;;;;5068649;28;20203;-59
2020/12/18 00:47:19;;;;;;;11.00;9.83;;;5.60;99.90;;;;;;5071124;28;20215;-59
2020/12/18 00:49:44;;;;;;;12.30;10.23;;;5.40;99.90;;;;;;5070915;28;20190;-59
2020/12/18 00:52:10;;;;;;;11.30;9.93;;;5.60;99.90;;;;;;5072334;28;20291;-59
2020/12/18 00:54:36;;;;;;;11.47;10.27;;;5.60;99.90;;;;;;5072112;28;20206;-59
2020/12/18 00:57:02;;;;;;;10.73;9.40;;;5.50;99.90;;;;;;5070954;28;20703;-59
2020/12/18 00:59:27;;;;;;;10.43;9.10;;;5.20;99.90;;;;;;5072480;28;21001;-60
2020/12/18 01:02:00;;;;;;;12.23;10.00;;;5.40;99.90;;;;;;5070935;28;20205;-59
2020/12/18 01:04:26;;;;;;;9.88;8.63;;;5.40;99.90;;;;;;5067491;28;20441;-59
2020/12/18 01:06:53;;;;;;;12.57;10.45;;;5.40;99.90;;;;;;5070157;28;20206;-60
2020/12/18 01:09:20;;;;;;;10.90;9.80;;;5.40;99.90;;;;;;5070707;28;20188;-59
2020/12/18 01:11:45;;;;;;;11.95;10.57;;;5.30;99.90;;;;;;5070671;28;20189;-59
2020/12/18 01:14:11;;;;;;;12.07;9.97;;;5.00;99.90;;;;;;5070584;28;20552;-59
2020/12/18 01:16:37;;;;;;;12.63;10.53;;;5.30;99.90;;;;;;5071745;28;20259;-59
2020/12/18 01:19:02;;;;;;;11.40;10.13;;;5.40;99.90;;;;;;5070732;28;20235;-59
2020/12/18 01:21:28;;;;;;;11.80;10.60;;;5.60;99.90;;;;;;5070731;28;20277;-59
2020/12/18 01:23:53;;;;;;;13.20;11.30;;;5.30;99.90;;;;;;5070628;28;20197;-59
2020/12/18 01:26:19;;;;;;;13.50;10.57;;;5.30;99.90;;;;;;5071542;28;20214;-59
2020/12/18 01:28:45;;;;;;;11.60;10.00;;;5.40;99.90;;;;;;5070537;28;20712;-59
2020/12/18 01:31:10;;;;;;;13.17;10.90;;;5.50;99.90;;;;;;5087206;28;20218;-59
2020/12/18 01:33:36;;;;;;;12.37;10.27;;;5.40;99.90;;;;;;5070839;28;20192;-59
2020/12/18 01:36:01;;;;;;;11.20;10.00;;;5.30;99.90;;;;;;5070110;28;20212;-59
2020/12/18 01:38:27;;;;;;;12.07;10.60;;;5.60;99.90;;;;;;5069994;28;20248;-59
2020/12/18 01:40:53;;;;;;;10.70;9.60;;;5.40;99.90;;;;;;5070534;28;20200;-59
2020/12/18 01:43:19;;;;;;;11.43;10.23;;;5.40;99.90;;;;;;5070361;28;20207;-59
2020/12/18 01:45:44;;;;;;;10.73;9.23;;;5.60;99.90;;;;;;5070067;28;20208;-59
2020/12/18 01:48:12;;;;;;;10.77;9.67;;;5.70;99.90;;;;;;5070394;28;20304;-59
2020/12/18 01:50:37;;;;;;;13.65;10.55;;;5.70;99.90;;;;;;5070154;28;20251;-60
2020/12/18 01:53:04;;;;;;;11.40;9.80;;;5.60;99.90;;;;;;5070354;28;20239;-59
2020/12/18 01:55:30;;;;;;;12.20;10.30;;;5.80;99.90;;;;;;5069850;28;20236;-59
2020/12/18 01:57:55;;;;;;;10.73;9.27;;;5.50;99.90;;;;;;5070033;28;20213;-59
2020/12/18 02:00:22;;;;;;;10.37;9.37;;;5.50;99.90;;;;;;5069605;28;20434;-60
2020/12/18 02:02:47;;;;;;;12.27;11.07;;;5.50;99.90;;;;;;5069827;28;20847;-59
2020/12/18 02:05:14;;;;;;;10.43;9.43;;;5.70;99.90;;;;;;5069544;28;20181;-59
2020/12/18 02:07:48;;;;;;;10.80;9.32;;;5.80;99.90;;;;;;5070082;28;20182;-60
2020/12/18 02:10:14;;;;;;;10.80;9.68;;;5.60;99.90;;;;;;5069588;28;20190;-59
2020/12/18 02:12:39;;;;;;;11.17;10.00;;;5.80;99.90;;;;;;5070799;28;20189;-59
2020/12/18 02:15:05;;;;;;;10.43;9.37;;;5.70;99.90;;;;;;5068729;28;20198;-59
2020/12/18 02:17:31;;;;;;;10.90;9.20;;;5.60;99.90;;;;;;5069391;28;20201;-59
2020/12/18 02:19:57;;;;;;;11.60;10.05;;;5.60;99.90;;;;;;5069136;28;20186;-59
2020/12/18 02:22:24;;;;;;;12.90;9.73;;;5.40;99.90;;;;;;5071023;28;20216;-59
2020/12/18 02:25:00;;;;;;;11.07;9.75;;;5.70;99.90;;;;;;5069146;28;20197;-60
2020/12/18 02:27:25;;;;;;;11.20;10.10;;;5.50;99.90;;;;;;5069109;28;20198;-59
2020/12/18 02:29:51;;;;;;;12.40;10.10;;;5.70;99.90;;;;;;5070310;28;20564;-59
2020/12/18 02:32:17;;;;;;;10.70;9.60;;;5.20;99.90;;;;;;5069171;28;20195;-59
2020/12/18 02:34:43;;;;;;;11.60;9.60;;;5.50;99.90;;;;;;5069299;28;20195;-59
2020/12/18 02:37:09;;;;;;;12.63;10.03;;;5.70;99.90;;;;;;5069074;28;20224;-59
2020/12/18 02:39:34;;;;;;;11.87;10.47;;;5.40;99.90;;;;;;5069086;28;20195;-59
2020/12/18 02:42:00;;;;;;;11.50;10.30;;;5.60;99.90;;;;;;5068907;28;21023;-59
2020/12/18 02:44:26;;;;;;;10.90;9.82;;;5.50;99.90;;;;;;5068255;28;20186;-59
2020/12/18 02:46:51;;;;;;;11.27;9.83;;;5.60;99.90;;;;;;5066414;28;20205;-59
2020/12/18 02:49:17;;;;;;;10.73;9.63;;;5.50;99.90;;;;;;5068812;28;20716;-59
2020/12/18 02:51:44;;;;;;;11.50;10.10;;;5.50;99.90;;;;;;5068713;28;20190;-58
2020/12/18 02:54:11;;;;;;;12.18;10.15;;;5.70;99.90;;;;;;5069052;28;20662;-59
2020/12/18 02:56:37;;;;;;;13.50;11.15;;;5.40;99.90;;;;;;5068533;28;20205;-58
2020/12/18 02:59:03;;;;;;;12.25;10.60;;;5.40;99.90;;;;;;5065524;28;20552;-58
2020/12/18 03:01:29;;;;;;;12.30;10.32;;;5.30;99.90;;;;;;5068484;28;20209;-59
2020/12/18 03:03:54;;;;;;;11.47;10.10;;;5.20;99.90;;;;;;5065485;28;20216;-59
2020/12/18 03:06:20;;;;;;;17.63;10.63;;;5.60;99.90;;;;;;5063378;28;20291;-59
2020/12/18 03:08:45;;;;;;;12.00;9.53;;;5.40;99.90;;;;;;5069009;28;20616;-58
2020/12/18 03:11:12;;;;;;;11.30;10.10;;;5.40;99.90;;;;;;5068562;28;20197;-58
2020/12/18 03:13:38;;;;;;;10.45;8.93;;;5.60;99.90;;;;;;5068700;28;20189;-59
2020/12/18 03:16:04;;;;;;;10.23;9.10;;;5.50;99.90;;;;;;5068388;28;20224;-58
2020/12/18 03:18:29;;;;;;;10.30;9.30;;;5.50;99.90;;;;;;5068151;28;20234;-58
2020/12/18 03:20:55;;;;;;;10.90;9.27;;;5.20;99.90;;;;;;5068348;28;20319;-59
2020/12/18 03:23:20;;;;;;;11.20;9.57;;;5.50;99.90;;;;;;5068433;28;20207;-58
2020/12/18 03:25:46;;;;;;;10.10;8.90;;;5.60;99.90;;;;;;5067870;28;20323;-59
2020/12/18 03:28:12;;;;;;;10.60;9.33;;;5.80;99.90;;;;;;5069680;28;20261;-58
2020/12/18 03:30:37;;;;;;;13.40;8.77;;;5.80;99.90;;;;;;5068101;28;20182;-59
2020/12/18 03:33:03;;;;;;;10.90;9.07;;;5.90;99.90;;;;;;5068174;28;20993;-59
2020/12/18 03:35:30;;;;;;;10.60;9.50;;;6.00;99.90;;;;;;5067966;28;20264;-58
2020/12/18 03:37:55;;;;;;;12.25;9.90;;;6.00;99.90;;;;;;5069969;28;20964;-58
2020/12/18 03:40:21;;;;;;;10.93;9.47;;;6.00;99.90;;;;;;5068125;28;20271;-57
2020/12/18 03:42:47;;;;;;;11.03;8.97;;;5.90;99.90;;;;;;5068088;28;20231;-58
2020/12/18 03:45:12;;;;;;;11.17;9.57;;;5.90;99.90;;;;;;5068406;28;20439;-58
2020/12/18 03:47:38;;;;;;;10.97;9.87;;;6.30;99.90;;;;;;5067863;28;20256;-58
2020/12/18 03:50:06;;;;;;;13.23;10.60;;;6.30;99.90;;;;;;5067843;28;20195;-58
2020/12/18 03:52:32;;;;;;;11.75;10.55;;;6.40;99.90;;;;;;5067553;28;20652;-58
2020/12/18 03:54:57;;;;;;;10.73;9.60;;;6.40;99.90;;;;;;5067962;28;20267;-58
2020/12/18 03:57:23;;;;;;;12.40;9.00;;;6.20;99.90;;;;;;5070716;28;20305;-58
2020/12/18 03:59:49;;;;;;;12.20;9.63;;;5.80;99.90;;;;;;5068664;28;20435;-58
2020/12/18 04:02:14;;;;;;;9.43;8.50;;;6.60;99.90;;;;;;5071281;28;20466;-58
2020/12/18 04:04:40;;;;;;;10.27;9.27;;;6.50;99.90;;;;;;5070142;28;20666;-58
2020/12/18 04:07:06;;;;;;;11.30;9.17;;;6.50;99.90;;;;;;5071746;28;20213;-58
2020/12/18 04:09:31;;;;;;;10.03;8.97;;;6.60;99.90;;;;;;5071364;28;20196;-58
2020/12/18 04:11:57;;;;;;;10.30;9.00;;;6.60;99.90;;;;;;5071645;28;20301;-58
2020/12/18 04:14:23;;;;;;;11.23;9.40;;;6.40;99.90;;;;;;5071682;28;20240;-58
2020/12/18 04:16:48;;;;;;;14.20;9.93;;;6.30;99.90;;;;;;5074904;28;20217;-57
2020/12/18 04:19:14;;;;;;;11.77;9.70;;;6.20;99.90;;;;;;5071841;28;20192;-58
2020/12/18 04:21:39;;;;;;;10.47;9.37;;;6.20;99.90;;;;;;5071638;28;20708;-58
2020/12/18 04:24:05;;;;;;;10.87;9.20;;;6.20;99.90;;;;;;5071701;28;20245;-58
2020/12/18 04:26:31;;;;;;;11.20;10.10;;;6.40;99.90;;;;;;5071277;28;20240;-58
2020/12/18 04:28:56;;;;;;;11.57;10.17;;;6.20;99.90;;;;;;5067404;28;20432;-59
2020/12/18 04:31:22;;;;;;;14.43;10.37;;;6.40;99.90;;;;;;5071270;28;20190;-58
2020/12/18 04:33:48;;;;;;;12.37;10.07;;;6.30;99.90;;;;;;5071552;28;20278;-58
2020/12/18 04:36:14;;;;;;;14.53;10.73;;;6.20;99.90;;;;;;5071278;28;20519;-58
2020/12/18 04:38:39;;;;;;;11.43;10.27;;;6.50;99.90;;;;;;5071340;28;20218;-58
2020/12/18 04:41:06;;;;;;;12.13;9.77;;;6.60;99.90;;;;;;5071366;28;20457;-58
2020/12/18 04:43:32;;;;;;;11.15;9.80;;;6.40;99.90;;;;;;5072432;28;20207;-58
2020/12/18 04:45:59;;;;;;;11.87;9.50;;;6.70;99.90;;;;;;5072464;28;20208;-57
2020/12/18 04:48:26;;;;;;;10.35;9.30;;;6.70;99.90;;;;;;5067733;28;20428;-58
2020/12/18 04:50:57;;;;;;;11.68;10.35;;;6.50;99.90;;;;;;5071106;28;20198;-58
2020/12/18 04:53:28;;;;;;;12.57;9.68;;;6.50;99.90;;;;;;5070829;28;20192;-58
2020/12/18 04:55:55;;;;;;;10.80;9.63;;;6.40;99.90;;;;;;5071137;28;20218;-58
2020/12/18 04:58:24;;;;;;;13.55;9.77;;;6.40;99.90;;;;;;5070540;28;20198;-59
2020/12/18 05:00:56;;;;;;;11.30;9.90;;;6.50;99.90;;;;;;5070831;28;20562;-59
2020/12/18 05:03:27;;;;;;;11.30;10.10;;;6.70;99.90;;;;;;5067559;28;20192;-58
2020/12/18 05:05:53;;;;;;;11.88;10.70;;;6.40;99.90;;;;;;5070960;28;20680;-58
2020/12/18 05:08:19;;;;;;;13.40;10.23;;;6.60;99.90;;;;;;5069463;28;20271;-58
2020/12/18 05:10:44;;;;;;;11.23;10.10;;;6.40;99.90;;;;;;5071076;28;20651;-58
2020/12/18 05:13:10;;;;;;;12.70;10.37;;;6.40;99.90;;;;;;5070528;28;20190;-58
2020/12/18 05:15:35;;;;;;;13.10;10.43;;;6.30;99.90;;;;;;5070692;28;20208;-59
2020/12/18 05:18:01;;;;;;;11.60;10.40;;;6.60;99.90;;;;;;5070367;28;20268;-59
2020/12/18 05:20:27;;;;;;;15.73;9.80;;;6.50;99.90;;;;;;5069226;28;20185;-59
2020/12/18 05:22:53;;;;;;;12.93;10.43;;;6.70;99.90;;;;;;5065173;28;20204;-58
2020/12/18 05:25:19;;;;;;;12.77;9.90;;;6.70;99.90;;;;;;5070556;28;20206;-59
2020/12/18 05:27:45;;;;;;;14.70;11.50;;;6.90;99.90;;;;;;5070482;28;20170;-59
2020/12/18 05:30:10;;;;;;;11.37;10.23;;;7.00;99.90;;;;;;5070497;28;20406;-59
2020/12/18 05:32:36;;;;;;;11.07;9.97;;;6.90;99.90;;;;;;5070162;28;20193;-58
2020/12/18 05:35:04;;;;;;;12.00;10.70;;;7.10;99.90;;;;;;5070800;28;20431;-59
2020/12/18 05:37:39;;;;;;;11.20;10.05;;;7.00;99.90;;;;;;5070057;28;20200;-59
2020/12/18 05:40:06;;;;;;;11.85;10.65;;;6.80;99.90;;;;;;5071356;28;20180;-59
2020/12/18 05:42:46;;;;;;;11.57;9.75;;;6.70;99.90;;;;;;5070034;28;20207;-58
2020/12/18 05:45:17;;;;;;;12.55;9.75;;;6.80;99.90;;;;;;5070076;28;20526;-59
2020/12/18 05:48:00;;;;;;;11.68;10.48;;;7.10;99.90;;;;;;5070035;28;20712;-59
2020/12/18 05:50:37;;;;;;;12.10;10.77;;;7.10;99.90;;;;;;5067704;28;20179;-59
2020/12/18 05:53:04;;;;;;;11.32;10.18;;;6.90;99.90;;;;;;5070760;28;20192;-59
2020/12/18 05:55:40;;;;;;;10.27;9.27;;;6.80;99.90;;;;;;5070220;28;20238;-59
2020/12/18 05:58:11;;;;;;;12.68;9.93;;;6.90;99.90;;;;;;5069693;28;20191;-59
2020/12/18 06:00:38;;;;;;;12.05;10.18;;;7.00;99.90;;;;;;5071171;28;20187;-59
2020/12/18 06:03:11;;;;;;;11.68;10.45;;;7.10;99.90;;;;;;5069242;28;20212;-58
2020/12/18 06:05:45;;;;;;;11.25;10.02;;;7.00;99.90;;;;;;5071315;28;20261;-60
2020/12/18 06:08:19;;;;;;;10.48;9.38;;;7.10;99.90;;;;;;5069419;28;20624;-59
2020/12/18 06:10:45;;;;;;;17.45;10.23;;;7.00;99.90;;;;;;5069594;28;20632;-59
2020/12/18 06:13:11;;;;;;;11.70;10.50;;;7.20;99.90;;;;;;5069732;28;20189;-59
2020/12/18 06:15:36;;;;;;;12.57;9.60;;;7.40;99.90;;;;;;5069681;28;20211;-59
2020/12/18 06:18:05;;;;;;;12.73;11.53;;;7.00;99.90;;;;;;5070645;28;20439;-59
2020/12/18 06:20:35;;;;;;;12.85;11.60;;;7.20;99.90;;;;;;5068958;28;20466;-59
2020/12/18 06:23:05;;;;;;;14.48;12.98;;;7.30;99.90;;;;;;5068983;28;20630;-57
2020/12/18 06:25:31;;;;;;;15.18;12.65;;;7.00;99.90;;;;;;5068994;28;20227;-58
2020/12/18 06:28:03;;;;;;;16.92;12.18;;;6.90;99.90;;;;;;5068698;28;20180;-59
2020/12/18 06:30:30;;;;;;;13.65;12.05;;;6.60;99.90;;;;;;5069348;28;20184;-59
2020/12/18 06:32:56;;;;;;;14.25;12.75;;;6.70;99.90;;;;;;5069146;28;20193;-59
2020/12/18 06:35:32;;;;;;;15.35;13.32;;;6.70;99.90;;;;;;5069272;28;20191;-58
2020/12/18 06:38:20;;;;;;;14.77;12.00;;;6.50;99.90;;;;;;5068923;28;20197;-59
2020/12/18 06:40:46;;;;;;;12.98;11.68;;;6.40;99.90;;;;;;5068701;28;20189;-59
2020/12/18 06:43:12;;;;;;;11.83;10.63;;;6.80;99.90;;;;;;5068440;28;20269;-59
2020/12/18 06:45:37;;;;;;;12.40;11.10;;;6.80;99.90;;;;;;5070166;28;20212;-59
2020/12/18 06:48:28;;;;;;;12.03;10.50;;;6.50;99.90;;;;;;5068478;28;20248;-59
2020/12/18 06:50:54;;;;;;;13.35;11.20;;;6.70;99.90;;;;;;5068499;28;20541;-59
2020/12/18 06:53:20;;;;;;;12.87;11.67;;;6.80;99.90;;;;;;5068845;28;20503;-59
2020/12/18 06:55:45;;;;;;;15.10;11.90;;;6.80;99.90;;;;;;5068239;28;20208;-59
2020/12/18 06:58:12;;;;;;;12.03;10.17;;;6.70;99.90;;;;;;5068283;28;20433;-59
2020/12/18 07:00:54;;;;;;;11.48;9.48;;;6.90;99.90;;;;;;5068144;28;20192;-59
2020/12/18 07:03:33;;;;;;;15.25;10.93;;;6.80;99.90;;;;;;5065074;28;20231;-60
2020/12/18 07:06:02;;;;;;;15.45;12.35;;;6.70;99.90;;;;;;5068514;28;20285;-58
2020/12/18 07:08:31;;;;;;;11.88;10.57;;;6.60;99.90;;;;;;5068258;28;20184;-59
2020/12/18 07:11:04;;;;;;;10.52;9.50;;;6.70;99.90;;;;;;5069957;28;20267;-59
2020/12/18 07:13:31;;;;;;;11.90;10.70;;;6.90;99.90;;;;;;5069605;28;20576;-59
2020/12/18 07:15:58;;;;;;;11.50;10.13;;;7.00;99.90;;;;;;5068457;28;20302;-59
2020/12/18 07:18:26;;;;;;;12.25;9.80;;;6.90;99.90;;;;;;5068050;28;20194;-58
2020/12/18 07:20:55;;;;;;;11.45;10.27;;;7.00;99.90;;;;;;5068617;28;20188;-59
2020/12/18 07:23:22;;;;;;;11.68;10.35;;;6.80;99.90;;;;;;5068159;28;20201;-59
2020/12/18 07:25:48;;;;;;;12.65;11.35;;;6.70;99.90;;;;;;5068210;28;20264;-59
2020/12/18 07:28:14;;;;;;;14.60;13.02;;;6.60;99.90;;;;;;5062263;28;20177;-59
2020/12/18 07:30:45;;;;;;;12.48;10.98;;;6.70;99.90;;;;;;5067166;28;20680;-59
2020/12/18 07:33:12;;;;;;;20.83;11.25;;;7.00;99.90;;;;;;5067986;28;20196;-59
2020/12/18 07:35:44;;;;;;;13.00;11.27;;;7.00;99.90;;;;;;5067858;28;20737;-59
2020/12/18 07:38:15;;;;;;;13.20;11.05;;;7.00;99.90;;;;;;5067761;28;20196;-60
2020/12/18 07:40:41;;;;;;;12.73;11.10;;;7.20;99.90;;;;;;5068211;28;20277;-60
2020/12/18 07:43:11;;;;;;;16.17;10.40;;;7.40;99.90;;;;;;5069101;28;20215;-60
2020/12/18 07:45:42;;;;;;;13.05;11.52;;;7.10;99.90;;;;;;5067930;28;20674;-60
2020/12/18 07:48:15;;;;;;;11.40;10.20;;;7.30;99.90;;;;;;5067913;28;20275;-59
2020/12/18 07:50:42;;;;;;;13.68;11.40;;;7.30;99.90;;;;;;5067619;28;20184;-60
2020/12/18 07:53:11;;;;;;;12.07;10.77;;;7.20;99.90;;;;;;5067978;28;20193;-60
2020/12/18 07:55:37;;;;;;;11.93;9.77;;;7.50;99.90;;;;;;5067513;28;20212;-59
2020/12/18 07:58:04;;;;;;;15.43;10.07;;;7.40;99.90;;;;;;5067520;28;20276;-59
2020/12/18 08:00:30;;;;;;;13.18;10.95;;;7.10;99.90;;;;;;5067588;28;20193;-59
2020/12/18 08:02:55;;;;;;;13.18;11.05;;;7.00;99.90;;;;;;5067948;28;20662;-59
2020/12/18 08:05:22;;;;;;;12.23;10.93;;;7.50;99.90;;;;;;5067758;28;20193;-59
2020/12/18 08:07:58;;;;;;;11.95;10.65;;;7.50;99.90;;;;;;5067545;28;20410;-60
2020/12/18 08:10:24;;;;;;;13.27;10.40;;;7.80;99.90;;;;;;5071259;28;20606;-60
2020/12/18 08:12:50;;;;;;;15.23;11.53;;;7.80;99.90;;;;;;5067599;28;20187;-60
2020/12/18 08:15:16;;;;;;;12.05;10.57;;;7.70;99.90;;;;;;5067328;28;20192;-59
2020/12/18 08:17:44;;;;;;;14.60;10.90;;;7.60;99.90;;;;;;5069074;28;20185;-60
2020/12/18 08:20:14;;;;;;;11.60;10.43;;;7.50;99.90;;;;;;5067074;28;20412;-60
2020/12/18 08:22:43;;;;;;;12.82;10.52;;;7.70;99.90;;;;;;5067214;28;20303;-59
2020/12/18 08:25:10;;;;;;;13.10;11.80;;;7.80;99.90;;;;;;5066974;28;20280;-59
2020/12/18 08:27:53;;;;;;;13.10;11.70;;;7.50;99.90;;;;;;5062763;28;20192;-59
2020/12/18 08:30:22;;;;;;;13.45;10.85;;;7.60;99.90;;;;;;5065107;28;20185;-60
2020/12/18 08:32:53;;;;;;;12.73;10.20;;;7.80;99.90;;;;;;5067258;28;20211;-60
2020/12/18 08:35:20;;;;;;;19.70;11.32;;;8.10;99.90;;;;;;5067572;28;20192;-59
2020/12/18 08:37:48;;;;;;;17.20;11.32;;;7.90;99.90;;;;;;5066913;28;20214;-59
2020/12/18 08:40:19;;;;;;;13.43;11.43;;;7.90;99.90;;;;;;5066754;28;20406;-59
2020/12/18 08:42:44;;;;;;;14.38;11.10;;;8.10;99.90;;;;;;5068587;28;20205;-59
2020/12/18 08:45:10;;;;;;;16.30;11.67;;;7.60;99.90;;;;;;5070625;28;20192;-58
2020/12/18 08:47:36;;;;;;;11.73;10.43;;;8.30;99.90;;;;;;5070923;28;20189;-59
2020/12/18 08:50:01;;;;;;;13.77;10.43;;;8.10;99.90;;;;;;5070599;28;20539;-59
2020/12/18 08:52:29;;;;;;;13.53;10.80;;;8.20;99.90;;;;;;5071038;28;20214;-61
2020/12/18 08:55:06;;;;;;;16.27;11.77;;;8.10;99.90;;;;;;5070874;28;20322;-60
2020/12/18 08:57:33;;;;;;;15.70;10.95;;;8.70;99.90;;;;;;5057802;28;20215;-60
2020/12/18 09:00:18;;;;;;;11.40;10.30;;;8.80;99.90;;;;;;5071705;28;20184;-61
2020/12/18 09:02:50;;;;;;;12.30;11.02;;;9.00;99.90;;;;;;5070828;28;20222;-60
2020/12/18 09:05:30;;;;;;;20.95;10.95;;;9.00;99.90;;;;;;5070700;28;20675;-59
2020/12/18 09:08:04;;;;;;;10.77;9.50;;;8.90;99.90;;;;;;5070873;28;20196;-59
2020/12/18 09:10:41;;;;;;;12.85;10.00;;;9.30;99.90;;;;;;5070609;28;20188;-60
2020/12/18 09:13:23;;;;;;;15.48;11.57;;;8.90;99.90;;;;;;5070571;28;20188;-59
2020/12/18 09:15:59;;;;;;;14.02;10.65;;;9.10;99.90;;;;;;5070491;28;20213;-60
2020/12/18 09:18:26;;;;;;;13.00;10.40;;;9.20;99.90;;;;;;5070160;28;20185;-59
2020/12/18 09:20:53;;;;;;;17.10;10.40;;;9.40;99.90;;;;;;5070140;28;20189;-60
2020/12/18 09:23:32;;;;;;;12.85;9.60;;;9.40;99.90;;;;;;5070510;28;20209;-60
2020/12/18 09:26:00;;;;;;;12.25;11.02;;;9.40;99.90;;;;;;5070173;28;20216;-60
2020/12/18 09:28:26;;;;;;;14.00;11.35;;;9.30;99.90;;;;;;5065332;28;20185;-59
2020/12/18 09:30:55;;;;;;;12.70;11.25;;;9.60;99.90;;;;;;5070140;28;20513;-59
2020/12/18 09:33:23;;;;;;;11.90;10.27;;;9.50;99.90;;;;;;5069872;28;20631;-59
2020/12/18 09:35:50;;;;;;;12.15;10.63;;;9.40;99.90;;;;;;5069892;28;20281;-60
2020/12/18 09:38:25;;;;;;;12.45;10.57;;;9.20;99.90;;;;;;5071254;28;20734;-60
2020/12/18 09:40:51;;;;;;;13.90;10.60;;;9.30;99.90;;;;;;5069664;28;20539;-60
2020/12/18 09:43:17;;;;;;;11.43;10.27;;;9.20;99.90;;;;;;5069837;28;20266;-60
2020/12/18 09:45:43;;;;;;;13.45;10.77;;;9.00;99.90;;;;;;5069288;28;20479;-60
2020/12/18 09:48:08;;;;;;;11.95;10.30;;;9.60;99.90;;;;;;5069564;28;20185;-60
2020/12/18 09:50:34;;;;;;;15.60;12.03;;;9.50;99.90;;;;;;5067894;28;20182;-59
2020/12/18 09:52:59;;;;;;;15.33;12.27;;;9.10;99.90;;;;;;5069836;28;20563;-59
2020/12/18 09:55:25;;;;;;;14.30;10.60;;;9.30;99.90;;;;;;5069192;28;20712;-59
2020/12/18 09:57:51;;;;;;;12.77;10.43;;;9.20;99.90;;;;;;5069861;28;20220;-59
2020/12/18 10:00:16;;;;;;;17.60;11.17;;;9.40;99.90;;;;;;5070663;28;20177;-60
2020/12/18 10:02:42;;;;;;;13.90;11.10;;;9.90;99.90;;;;;;5068907;28;20455;-60
2020/12/18 10:05:08;;;;;;;15.53;11.00;;;10.40;99.90;;;;;;5069479;28;20177;-60
2020/12/18 10:07:33;;;;;;;14.13;10.00;;;10.30;99.90;;;;;;5069093;28;20203;-60
2020/12/18 10:09:59;;;;;;;14.73;10.30;;;10.40;99.90;;;;;;5069050;28;20642;-60
2020/12/18 10:12:25;;;;;;;13.00;10.77;;;10.50;99.90;;;;;;5068903;28;20217;-59
2020/12/18 10:14:50;;;;;;;10.97;9.87;;;10.60;99.90;;;;;;5068546;28;20212;-60
2020/12/18 10:17:16;;;;;;;11.83;10.27;;;10.70;99.90;;;;;;5068849;28;20210;-60
2020/12/18 10:19:42;;;;;;;10.73;9.70;;;11.20;99.90;;;;;;5069132;28;20181;-60
2020/12/18 10:22:07;;;;;;;11.23;9.50;;;11.40;99.90;;;;;;5068170;28;20293;-58
2020/12/18 10:24:33;;;;;;;11.40;10.20;;;11.80;99.90;;;;;;5068594;28;20545;-59
2020/12/18 10:26:59;;;;;;;10.30;9.27;;;12.10;99.90;;;;;;5068416;28;20202;-59
2020/12/18 10:29:24;;;;;;;10.40;8.70;;;12.60;99.90;;;;;;5068859;28;20536;-58
2020/12/18 10:31:58;;;;;;;10.50;8.10;;;12.50;99.90;;;;;;5068929;28;20187;-58
2020/12/18 10:34:24;;;;;;;11.50;9.02;;;12.90;99.90;;;;;;5068853;28;20655;-58
2020/12/18 10:36:54;;;;;;;12.57;9.33;;;13.00;99.90;;;;;;5068711;28;20339;-58
2020/12/18 10:39:23;;;;;;;9.70;8.60;;;13.70;99.70;;;;;;5068619;28;20439;-59
2020/12/18 10:41:49;;;;;;;15.35;9.75;;;13.70;98.90;;;;;;5068378;28;20556;-59
2020/12/18 10:44:14;;;;;;;10.70;9.70;;;14.70;97.60;;;;;;5068749;28;20511;-59
2020/12/18 10:46:41;;;;;;;13.97;11.77;;;15.40;95.70;;;;;;5068341;28;20455;-61
2020/12/18 10:49:07;;;;;;;9.30;8.40;;;15.30;94.80;;;;;;5068917;28;20195;-60
2020/12/18 10:51:37;;;;;;;10.95;9.38;;;15.40;94.50;;;;;;5068324;28;20216;-61
2020/12/18 10:54:02;;;;;;;16.17;9.85;;;15.70;94.20;;;;;;5075702;28;20181;-61
2020/12/18 10:56:28;;;;;;;12.40;10.10;;;16.60;92.40;;;;;;5068065;28;20688;-59
2020/12/18 10:58:53;;;;;;;11.20;9.80;;;17.20;91.50;;;;;;5067945;28;20207;-59
2020/12/18 11:01:19;;;;;;;11.47;10.37;;;16.80;90.80;;;;;;5068545;28;20554;-59
2020/12/18 11:03:45;;;;;;;12.15;10.50;;;16.00;91.40;;;;;;5064963;28;20278;-61
2020/12/18 11:06:12;;;;;;;11.63;10.43;;;15.80;92.20;;;;;;5061084;28;20224;-59
2020/12/18 11:08:38;;;;;;;14.75;10.15;;;15.10;93.20;;;;;;5067379;28;20192;-59
2020/12/18 11:11:04;;;;;;;12.30;11.20;;;14.80;94.10;;;;;;5067546;28;20618;-59
2020/12/18 11:13:30;;;;;;;11.93;10.73;;;14.40;94.90;;;;;;5067854;28;20518;-59
2020/12/18 11:15:55;;;;;;;13.00;11.73;;;14.10;95.70;;;;;;5067483;28;20995;-59
2020/12/18 11:18:21;;;;;;;13.60;11.20;;;13.80;96.00;;;;;;5068211;28;20234;-59
2020/12/18 11:20:46;;;;;;;12.77;10.37;;;13.80;96.40;;;;;;5068325;28;20194;-59
2020/12/18 11:23:12;;;;;;;12.33;9.30;;;13.40;97.00;;;;;;5068019;28;20699;-59
2020/12/18 11:25:38;;;;;;;15.97;11.50;;;12.80;97.50;;;;;;5069206;28;20295;-59
2020/12/18 11:28:03;;;;;;;11.93;10.10;;;13.00;98.50;;;;;;5065966;28;20222;-60
2020/12/18 11:30:29;;;;;;;13.10;10.67;;;12.80;99.10;;;;;;5068004;28;20203;-60
2020/12/18 11:32:55;;;;;;;14.20;11.13;;;12.50;99.30;;;;;;5065700;28;20310;-60
2020/12/18 11:35:20;;;;;;;15.83;12.03;;;12.80;98.70;;;;;;5058833;28;20272;-60
2020/12/18 11:37:46;;;;;;;12.03;10.73;;;12.70;98.90;;;;;;5058007;28;20182;-60
2020/12/18 11:40:12;;;;;;;12.57;11.27;;;12.70;98.90;;;;;;5067628;28;20181;-60
2020/12/18 11:42:37;;;;;;;12.70;11.20;;;12.80;98.80;;;;;;5067463;28;20301;-60
2020/12/18 11:45:04;;;;;;;13.43;10.40;;;12.70;98.80;;;;;;5067795;28;20616;-60
2020/12/18 11:47:29;;;;;;;13.07;11.85;;;12.80;98.70;;;;;;5067434;28;20232;-59
2020/12/18 11:49:55;;;;;;;15.40;13.07;;;12.30;98.60;;;;;;5053952;28;20277;-60
2020/12/18 11:52:21;;;;;;;13.93;12.37;;;12.90;99.50;;;;;;5068320;28;20194;-59
2020/12/18 11:54:46;;;;;;;10.43;9.43;;;12.70;99.70;;;;;;5062842;28;20315;-59
2020/12/18 11:57:12;;;;;;;15.77;11.87;;;12.90;99.90;;;;;;5066119;28;20222;-58
2020/12/18 11:59:38;;;;;;;14.15;12.75;;;12.70;99.90;;;;;;5064168;28;20568;-61
2020/12/18 12:02:04;;;;;;;14.13;12.60;;;12.70;99.90;;;;;;5066182;28;20188;-59
2020/12/18 12:04:29;;;;;;;9.48;7.93;;;12.80;99.90;;;;;;5064178;28;20702;-59
2020/12/18 12:06:55;;;;;;;9.67;8.70;;;12.80;99.80;;;;;;5083675;28;20208;-60
2020/12/18 12:09:22;;;;;;;9.80;7.50;;;12.80;99.50;;;;;;5067413;28;20184;-60
2020/12/18 12:11:47;;;;;;;9.48;7.80;;;12.90;99.60;;;;;;5067443;28;20192;-60
2020/12/18 12:14:13;;;;;;;7.87;7.07;;;12.80;99.70;;;;;;5067661;28;20177;-60
2020/12/18 12:16:39;;;;;;;7.90;7.20;;;13.20;98.90;;;;;;5069269;28;20609;-60
2020/12/18 12:19:08;;;;;;;8.10;7.30;;;13.20;98.50;;;;;;5071307;28;20184;-60
2020/12/18 12:21:35;;;;;;;7.35;6.65;;;12.90;97.90;;;;;;5071633;28;20428;-60
2020/12/18 12:24:00;;;;;;;7.30;6.70;;;13.80;98.20;;;;;;5072539;28;20231;-59
2020/12/18 12:26:26;;;;;;;7.60;6.90;;;13.50;97.90;;;;;;5070749;28;20215;-59
2020/12/18 12:28:53;;;;;;;9.17;7.27;;;13.90;98.00;;;;;;5070992;28;20179;-59
2020/12/18 12:31:19;;;;;;;7.07;6.35;;;13.90;97.50;;;;;;5070863;28;20173;-59
2020/12/18 12:33:44;;;;;;;7.85;7.03;;;13.90;97.40;;;;;;5070883;28;20192;-60
2020/12/18 12:36:10;;;;;;;8.80;8.00;;;13.80;97.40;;;;;;5070423;28;20220;-60
2020/12/18 12:38:35;;;;;;;8.00;7.30;;;13.50;97.90;;;;;;5070669;28;20189;-59
2020/12/18 12:41:01;;;;;;;7.90;7.20;;;13.60;97.90;;;;;;5070857;28;20285;-60